Impacts METAR Board
IDs:

KMIA - Miami Intl, FL, US

Updated at: 2000 UTC 21 Sep 2021
Potential Impact None Slight Moderate High
Time 21/08Z 21/09Z 21/10Z 21/11Z 21/12Z 21/13Z 21/14Z 21/15Z 21/16Z 21/17Z 21/18Z 21/19Z 21/20Z
Temp80 80 80 81 82 83 84 84 85 87 87 86 86
Dewpt76 76 77 77 78 78 78 75 76 78 76 74 75
Altim29.98 29.96 29.96 29.98 29.99 30.01 30.03 30.05 30.04 30.04 30.01 30.00 29.99
VIS10 10 10 10 10 10 10 10 10 10 10 10 10
CIG39 120 120 60 180 210 210 200 180 250 60 160 250
CoverOVCOVCOVCBKNBKNBKNBKNBKNBKNOVCOVCBKNOVC
FltCatVFRVFRVFRVFRVFRVFRVFRVFRVFRVFRVFRVFRVFR
WX----------------------TSVCTS
WDir000000090110130110120140
WSpd0 0 0 0 0 3 0 4 3 6 6 6 5
WGst-- -- -- -- -- -- -- -- -- -- -- -- --
Raw hourly METARs
KMIA 210753Z 00000KT 10SM SCT020 BKN039 BKN110 OVC250 27/24 A2998 RMK AO2 RAB18E28 SLP151 P0000 T02670244 $
KMIA 210853Z 00000KT 10SM FEW020 FEW040 BKN120 OVC250 27/24 A2996 RMK AO2 SLP146 60000 T02670244 58011 $
KMIA 210953Z 00000KT 10SM FEW020 SCT040 BKN120 OVC250 27/25 A2996 RMK AO2 SLP147 OCNL LTGIC DSNT N-NE CB DSNT N-NE T02670250 $
KMIA 211053Z 00000KT 10SM FEW019 SCT030 BKN060 BKN130 BKN210 27/25 A2998 RMK AO2 SLP153 T02720250 $
KMIA 211153Z 00000KT 10SM FEW020 BKN180 BKN220 28/26 A2999 RMK AO2 SLP156 CB DSNT NE-SE MOV NW 60000 T02780256 10278 20261 53010 $
KMIA 211253Z VRB03KT 10SM FEW020 SCT160 BKN210 28/26 A3001 RMK AO2 SLP164 CB DSNT NE-SE MOV W T02830256 $
KMIA 211353Z 00000KT 10SM SCT026 SCT170 BKN210 29/26 A3003 RMK AO2 SLP169 T02890256 $
KMIA 211453Z COR 09004KT 10SM FEW025 SCT150 BKN200 29/24 A3005 RMK AO2 SLP175 T02890239 51018 $
KMIA 211553Z 11003KT 10SM FEW024 SCT150 BKN180 BKN250 29/24 A3004 RMK AO2 LTG DSNT SW SLP174 CB DSNT SE AND SW-W MOV W T02940244 $
KMIA 211653Z COR 13006KT 10SM FEW025 FEW150 SCT180 OVC250 31/26 A3004 RMK AO2 LTG DSNT S AND W SLP171 CB DSNT S-W MOV NW T03060256 $
KMIA 211753Z 11006KT 10SM SCT027CB BKN060 BKN180 OVC250 31/24 A3001 RMK AO2 SLP162 CB E-S MOV NW T03060244 10311 20272 58013 $
KMIA 211853Z 12006KT 10SM TS FEW021CB SCT055 SCT080 BKN160 OVC250 30/23 A3000 RMK AO2 LTG DSNT W TSB46 SLP159 OCNL LTGICCG NE TS NE MOV NW CB W-NW MOV NW T03000233 $
KMIA 211953Z COR 14005KT 10SM VCTS FEW020 SCT080 SCT160 OVC250 30/24 A2999 RMK AO2 LTG DSNT W-NE TSB04E13B18 SLP154 TS MOV NW CB DSNT W-N MOV NW T03000239 $



Page loaded:  20:26 UTC  |   01:26 PM Pacific  |   02:26 PM Mountain  |   03:26 PM Central  |   04:26 PM Eastern

 

ADVISORIES

FORECASTS

FORECASTS

OBSERVATIONS

USER TOOLS

ABOUT US